Time;durP1;ratioP1;P1;durP2;ratioP2;P2;SDS_P1;SDS_P2;PMS_P1;PMS_P2;Temp;Humidity;BMP_temperature;BMP_pressure;BME280_temperature;BME280_humidity;BME280_pressure;Samples;Min_cycle;Max_cycle;Signal;HPM_P1;HPM_P2
2021/06/17 00:01:49;;;;;;;14.63;8.75;;;22.60;96.00;;;;;;5011102;28;20046;-77
2021/06/17 00:04:15;;;;;;;13.20;8.43;;;22.60;96.00;;;;;;5011456;28;20053;-77
2021/06/17 00:06:41;;;;;;;10.13;8.63;;;22.60;96.00;;;;;;5010735;28;20034;-77
2021/06/17 00:09:06;;;;;;;11.32;8.43;;;22.60;95.90;;;;;;5010231;28;20037;-77
2021/06/17 00:11:32;;;;;;;15.80;8.82;;;22.60;95.80;;;;;;5012342;28;20359;-78
2021/06/17 00:13:58;;;;;;;11.40;8.82;;;22.70;95.90;;;;;;5011001;28;20364;-78
2021/06/17 00:16:24;;;;;;;12.60;8.50;;;22.60;96.00;;;;;;5010809;28;20056;-78
2021/06/17 00:18:49;;;;;;;13.15;8.40;;;22.50;95.90;;;;;;5010731;28;20398;-79
2021/06/17 00:21:16;;;;;;;13.35;8.68;;;22.50;96.10;;;;;;5010708;28;20024;-80
2021/06/17 00:23:42;;;;;;;12.20;9.02;;;22.50;96.10;;;;;;5012646;28;20105;-79
2021/06/17 00:26:07;;;;;;;13.60;8.65;;;22.40;96.30;;;;;;5010741;28;20431;-80
2021/06/17 00:28:33;;;;;;;12.27;8.80;;;22.40;96.40;;;;;;5009843;28;20048;-80
2021/06/17 00:30:59;;;;;;;9.52;8.13;;;22.40;96.20;;;;;;5010646;28;20041;-79
2021/06/17 00:33:25;;;;;;;14.85;9.85;;;22.30;96.30;;;;;;5010700;28;20038;-80
2021/06/17 00:35:51;;;;;;;10.63;9.23;;;22.30;96.60;;;;;;5011029;28;20026;-78
2021/06/17 00:38:16;;;;;;;13.77;8.90;;;22.30;96.80;;;;;;5010377;28;20150;-77
2021/06/17 00:40:43;;;;;;;11.95;9.27;;;22.30;96.30;;;;;;5011137;28;20458;-78
2021/06/17 00:43:10;;;;;;;11.98;9.02;;;22.30;96.40;;;;;;5011388;28;20139;-78
2021/06/17 00:45:45;;;;;;;13.30;8.65;;;22.30;96.40;;;;;;5009928;28;20072;-78
2021/06/17 00:48:12;;;;;;;14.65;9.15;;;22.30;96.00;;;;;;5011326;28;20041;-78
2021/06/17 00:50:59;;;;;;;12.20;8.30;;;22.30;96.10;;;;;;5012276;28;20132;-78
2021/06/17 00:53:30;;;;;;;15.27;9.52;;;22.20;96.20;;;;;;5010944;28;20517;-78
2021/06/17 00:55:56;;;;;;;10.27;8.57;;;22.30;96.50;;;;;;5010727;28;20042;-77
2021/06/17 00:58:23;;;;;;;15.57;10.20;;;22.10;97.00;;;;;;5010462;28;20368;-79
2021/06/17 01:00:49;;;;;;;13.95;9.30;;;22.10;96.50;;;;;;5010348;28;20456;-79
2021/06/17 01:03:14;;;;;;;9.98;8.43;;;22.10;96.50;;;;;;5009461;28;20022;-78
2021/06/17 01:05:41;;;;;;;9.95;8.27;;;22.00;96.70;;;;;;5011924;28;20116;-79
2021/06/17 01:08:36;;;;;;;9.50;8.45;;;22.00;96.40;;;;;;5009419;28;20084;-79
2021/06/17 01:11:16;;;;;;;12.77;8.15;;;22.00;96.20;;;;;;5009154;28;20038;-80
2021/06/17 01:13:47;;;;;;;14.02;8.50;;;22.00;96.20;;;;;;5009047;28;20049;-79
2021/06/17 01:16:24;;;;;;;16.63;8.65;;;22.00;96.20;;;;;;5009828;28;20094;-78
2021/06/17 01:18:53;;;;;;;10.43;8.43;;;22.00;96.30;;;;;;5009138;28;20391;-77
2021/06/17 01:21:29;;;;;;;11.18;9.48;;;21.90;96.60;;;;;;5009870;28;20257;-76
2021/06/17 01:24:13;;;;;;;12.82;8.90;;;22.00;95.90;;;;;;5011212;28;20113;-77
2021/06/17 01:27:15;;;;;;;12.32;8.60;;;22.00;96.10;;;;;;5025898;28;20129;-77
2021/06/17 01:29:43;;;;;;;11.05;8.45;;;22.00;96.10;;;;;;4989078;28;20145;-76
2021/06/17 01:32:10;;;;;;;18.15;9.25;;;22.00;96.00;;;;;;5009366;28;20042;-78
2021/06/17 01:34:38;;;;;;;12.25;8.82;;;22.00;96.00;;;;;;5008679;28;20079;-76
2021/06/17 01:37:08;;;;;;;9.60;8.40;;;22.00;96.10;;;;;;4982600;28;20098;-78
2021/06/17 01:39:36;;;;;;;15.52;9.25;;;21.90;96.20;;;;;;4975602;28;20073;-80
2021/06/17 01:42:04;;;;;;;14.02;9.55;;;21.90;96.20;;;;;;4990182;28;20037;-79
2021/06/17 01:44:34;;;;;;;12.68;8.15;;;21.90;96.20;;;;;;4991780;28;20037;-78
2021/06/17 01:47:02;;;;;;;15.98;9.32;;;21.80;96.30;;;;;;4989860;28;20046;-79
2021/06/17 01:49:29;;;;;;;12.07;8.80;;;21.80;96.60;;;;;;4990224;28;20559;-79
2021/06/17 01:51:57;;;;;;;8.75;7.63;;;21.80;96.70;;;;;;4989027;28;20121;-79
2021/06/17 01:54:26;;;;;;;11.80;8.88;;;21.80;96.70;;;;;;4989931;28;20042;-80
2021/06/17 01:56:54;;;;;;;13.70;9.25;;;21.70;96.80;;;;;;4991635;28;20025;-80
2021/06/17 01:59:22;;;;;;;13.55;8.82;;;21.70;96.80;;;;;;4971041;28;20046;-77
2021/06/17 02:01:52;;;;;;;15.02;8.77;;;21.70;96.60;;;;;;4985255;28;20473;-80
2021/06/17 02:04:20;;;;;;;19.33;9.25;;;21.70;96.80;;;;;;4989960;28;20122;-79
2021/06/17 02:06:46;;;;;;;;;;;21.70;96.90;;;;;;4993020;28;20027;-79
2021/06/17 02:09:13;;;;;;;14.90;8.70;;;21.70;97.10;;;;;;4994030;28;19945;-79
2021/06/17 02:11:38;;;;;;;13.73;9.77;;;21.60;97.20;;;;;;4995214;28;20105;-79
2021/06/17 02:14:07;;;;;;;13.95;9.52;;;21.60;97.30;;;;;;4993792;28;20125;-79
2021/06/17 02:16:33;;;;;;;13.35;9.88;;;21.60;97.30;;;;;;4993331;28;20039;-80
2021/06/17 02:19:01;;;;;;;16.85;10.00;;;21.60;97.30;;;;;;4993910;28;20050;-79
2021/06/17 02:21:30;;;;;;;14.88;9.50;;;21.50;97.30;;;;;;4989694;28;20030;-79
2021/06/17 02:23:58;;;;;;;15.65;9.25;;;21.50;97.50;;;;;;4975469;28;20441;-79
2021/06/17 02:26:29;;;;;;;17.35;9.93;;;21.40;97.80;;;;;;4993669;28;20049;-79
2021/06/17 02:28:58;;;;;;;12.43;8.98;;;21.40;97.80;;;;;;4993585;28;20041;-81
2021/06/17 02:31:28;;;;;;;15.25;9.85;;;21.30;97.70;;;;;;4993185;28;20046;-80
2021/06/17 02:33:54;;;;;;;15.80;9.38;;;21.40;97.70;;;;;;4993152;28;20038;-78
2021/06/17 02:36:25;;;;;;;13.82;9.75;;;21.40;97.70;;;;;;4992667;28;20034;-78
2021/06/17 02:38:55;;;;;;;15.45;10.02;;;21.40;97.70;;;;;;4994708;28;20031;-79
2021/06/17 02:41:24;;;;;;;20.42;9.70;;;21.40;97.70;;;;;;4992407;28;20046;-79
2021/06/17 02:43:55;;;;;;;16.08;9.88;;;21.40;97.60;;;;;;4993300;28;20042;-79
2021/06/17 02:46:21;;;;;;;16.92;10.43;;;21.30;98.00;;;;;;5009087;28;20031;-78
2021/06/17 02:48:47;;;;;;;14.95;10.20;;;21.20;98.00;;;;;;4993536;28;20042;-78
2021/06/17 02:51:12;;;;;;;16.52;9.85;;;21.30;97.60;;;;;;4993366;28;20034;-78
2021/06/17 02:53:38;;;;;;;17.80;10.43;;;21.30;97.70;;;;;;4994575;28;20026;-79
2021/06/17 02:56:11;;;;;;;16.85;10.38;;;21.30;97.80;;;;;;4992960;28;20508;-77
2021/06/17 02:59:10;;;;;;;20.17;12.05;;;21.30;97.90;;;;;;4993039;28;20065;-78
2021/06/17 03:01:48;;;;;;;14.43;9.40;;;21.30;97.70;;;;;;4992943;28;20045;-77
2021/06/17 03:04:40;;;;;;;18.85;10.63;;;21.20;97.90;;;;;;4991283;28;20481;-79
2021/06/17 03:07:10;;;;;;;14.27;10.13;;;21.30;98.00;;;;;;4992510;28;20373;-78
2021/06/17 03:09:45;;;;;;;20.42;10.63;;;21.20;98.00;;;;;;4992928;28;20038;-78
2021/06/17 03:12:14;;;;;;;12.63;10.30;;;21.20;97.90;;;;;;4992505;28;20030;-78
2021/06/17 03:14:40;;;;;;;17.10;10.77;;;21.10;98.00;;;;;;4993999;28;20368;-77
2021/06/17 03:17:08;;;;;;;12.25;9.73;;;21.20;97.90;;;;;;4991116;28;20073;-78
2021/06/17 03:19:35;;;;;;;17.27;10.60;;;21.10;97.90;;;;;;4992613;28;20361;-77
2021/06/17 03:22:10;;;;;;;15.02;10.77;;;21.10;98.00;;;;;;4992112;28;20053;-79
2021/06/17 03:24:39;;;;;;;14.98;10.52;;;21.10;98.00;;;;;;4991057;28;20035;-78
2021/06/17 03:27:07;;;;;;;13.43;10.35;;;21.10;98.10;;;;;;4992238;28;20580;-78
2021/06/17 03:29:37;;;;;;;14.10;10.30;;;21.10;98.50;;;;;;4993909;28;20022;-79
2021/06/17 03:32:05;;;;;;;13.88;10.23;;;21.10;98.40;;;;;;4991076;28;20125;-77
2021/06/17 03:34:32;;;;;;;13.80;10.48;;;21.00;98.30;;;;;;4990997;28;20034;-76
2021/06/17 03:37:00;;;;;;;12.35;10.05;;;21.00;98.40;;;;;;4991906;28;20046;-79
2021/06/17 03:39:27;;;;;;;15.88;11.38;;;21.00;98.40;;;;;;4991653;28;20026;-78
2021/06/17 03:41:53;;;;;;;14.07;10.93;;;21.10;98.40;;;;;;4993443;28;20042;-78
2021/06/17 03:44:21;;;;;;;19.92;10.65;;;21.00;98.20;;;;;;4991452;28;20368;-78
2021/06/17 03:46:47;;;;;;;15.82;10.60;;;21.10;98.40;;;;;;4991477;28;20452;-78
2021/06/17 03:49:13;;;;;;;14.32;10.90;;;21.00;98.50;;;;;;4992304;28;20380;-77
2021/06/17 03:51:40;;;;;;;17.50;10.18;;;21.00;98.40;;;;;;4992003;28;20069;-77
2021/06/17 03:54:08;;;;;;;16.08;10.02;;;21.00;98.50;;;;;;4990853;28;20028;-77
2021/06/17 03:56:34;;;;;;;13.55;11.20;;;21.00;98.50;;;;;;4992231;28;20506;-77
2021/06/17 03:59:00;;;;;;;16.15;10.52;;;21.10;98.30;;;;;;4991640;28;20122;-77
2021/06/17 04:01:27;;;;;;;12.75;10.15;;;21.10;98.00;;;;;;4990879;28;20030;-77
2021/06/17 04:03:52;;;;;;;19.25;11.13;;;21.10;98.20;;;;;;4991461;28;20027;-79
2021/06/17 04:06:18;;;;;;;19.33;11.05;;;21.10;98.20;;;;;;4992071;28;20038;-78
2021/06/17 04:08:50;;;;;;;16.85;11.50;;;21.10;98.60;;;;;;4993717;28;20110;-78
2021/06/17 04:11:19;;;;;;;17.95;10.93;;;21.10;98.40;;;;;;4991230;28;20116;-78
2021/06/17 04:13:45;;;;;;;19.60;11.32;;;21.20;98.40;;;;;;4991222;28;20053;-77
2021/06/17 04:16:30;;;;;;;15.40;10.90;;;21.10;98.30;;;;;;4991512;28;20072;-78
2021/06/17 04:18:56;;;;;;;14.35;11.00;;;21.20;98.50;;;;;;4991249;28;20472;-77
2021/06/17 04:21:23;;;;;;;19.63;10.50;;;21.20;98.50;;;;;;4987098;28;20381;-76
2021/06/17 04:23:54;;;;;;;14.70;10.65;;;21.20;98.60;;;;;;4973537;28;20524;-78
2021/06/17 04:26:23;;;;;;;16.95;10.68;;;21.20;98.60;;;;;;4990695;28;20046;-76
2021/06/17 04:28:52;;;;;;;16.88;10.57;;;21.30;98.80;;;;;;4991015;28;20109;-78
2021/06/17 04:31:18;;;;;;;16.90;10.52;;;21.30;98.70;;;;;;4991138;28;20125;-78
2021/06/17 04:33:44;;;;;;;14.75;10.27;;;21.30;98.50;;;;;;4990682;28;20129;-77
2021/06/17 04:36:11;;;;;;;15.63;10.32;;;21.40;98.60;;;;;;4990377;28;20030;-78
2021/06/17 04:38:38;;;;;;;14.43;10.10;;;21.30;98.60;;;;;;4992289;28;20058;-77
2021/06/17 04:41:07;;;;;;;18.15;10.60;;;21.30;98.40;;;;;;4990460;28;20117;-76
2021/06/17 04:43:34;;;;;;;13.98;10.02;;;21.40;98.40;;;;;;4990669;28;20037;-76
2021/06/17 04:46:00;;;;;;;18.08;10.27;;;21.40;98.30;;;;;;4990395;28;20548;-77
2021/06/17 04:48:27;;;;;;;18.95;10.52;;;21.50;98.30;;;;;;4990529;28;20073;-77
2021/06/17 04:50:54;;;;;;;21.00;10.60;;;21.60;98.40;;;;;;4993007;28;20026;-78
2021/06/17 04:53:20;;;;;;;18.58;10.48;;;21.50;98.30;;;;;;4990883;28;20039;-77
2021/06/17 04:55:49;;;;;;;27.17;10.63;;;21.60;98.40;;;;;;4990767;28;20125;-75
2021/06/17 04:58:16;;;;;;;30.40;11.40;;;21.70;98.30;;;;;;4990641;28;20026;-77
2021/06/17 05:00:41;;;;;;;32.70;11.73;;;21.70;98.50;;;;;;4989262;28;20038;-78
2021/06/17 05:03:07;;;;;;;21.45;10.07;;;21.70;98.60;;;;;;4990542;28;20053;-78
2021/06/17 05:05:32;;;;;;;18.15;10.32;;;21.70;98.50;;;;;;4992263;28;20022;-79
2021/06/17 05:10:48;;;;;;;14.30;9.48;;;22.00;98.20;;;;;;4976251;28;20449;-79
2021/06/17 05:13:15;;;;;;;14.27;9.52;;;21.90;98.10;;;;;;4995848;28;20041;-78
2021/06/17 05:15:41;;;;;;;14.43;10.10;;;22.00;98.00;;;;;;4989320;28;20054;-78
2021/06/17 05:18:06;;;;;;;14.13;10.70;;;22.10;98.00;;;;;;4990081;28;20271;-79
2021/06/17 05:20:32;;;;;;;14.88;10.38;;;22.10;97.90;;;;;;4991602;28;20421;-80
2021/06/17 05:22:58;;;;;;;12.57;9.27;;;22.20;97.70;;;;;;4990270;28;20038;-78
2021/06/17 05:25:23;;;;;;;14.45;9.38;;;22.30;97.80;;;;;;4978769;28;20035;-81
2021/06/17 05:27:49;;;;;;;16.60;10.23;;;22.30;97.50;;;;;;4977726;28;20453;-80
2021/06/17 05:30:15;;;;;;;15.30;9.45;;;22.40;97.70;;;;;;4989078;28;20388;-78
2021/06/17 05:32:44;;;;;;;18.00;9.57;;;22.40;97.60;;;;;;4991327;28;20035;-80
2021/06/17 05:35:10;;;;;;;16.13;9.63;;;22.50;97.40;;;;;;4989013;28;20470;-79
2021/06/17 05:37:35;;;;;;;14.45;10.13;;;22.50;97.50;;;;;;4988802;28;20061;-77
2021/06/17 05:40:02;;;;;;;13.20;9.68;;;22.60;97.40;;;;;;4990566;28;20027;-79
2021/06/17 05:42:27;;;;;;;14.98;9.80;;;22.70;97.20;;;;;;4994130;28;20062;-81
2021/06/17 05:44:53;;;;;;;12.48;8.85;;;22.80;97.00;;;;;;4994803;28;20054;-80
2021/06/17 05:47:22;;;;;;;13.95;10.00;;;22.90;97.10;;;;;;4993703;28;20038;-81
2021/06/17 05:49:47;;;;;;;18.70;10.10;;;23.10;97.30;;;;;;4994557;28;20371;-81
2021/06/17 05:52:13;;;;;;;20.58;9.63;;;23.20;97.10;;;;;;4993917;28;20050;-78
2021/06/17 05:54:39;;;;;;;14.18;9.25;;;23.40;96.90;;;;;;4994121;28;20463;-78
2021/06/17 05:57:05;;;;;;;24.20;10.57;;;23.50;96.80;;;;;;4994370;28;20444;-77
2021/06/17 05:59:30;;;;;;;22.45;9.80;;;23.60;96.70;;;;;;4977622;28;20039;-78
2021/06/17 06:01:56;;;;;;;17.48;9.30;;;23.70;96.70;;;;;;4976321;28;20406;-77
2021/06/17 06:04:22;;;;;;;17.00;9.82;;;23.80;96.70;;;;;;5003404;28;20041;-78
2021/06/17 06:06:47;;;;;;;11.82;8.10;;;23.80;96.60;;;;;;4996096;28;20088;-79
2021/06/17 06:09:13;;;;;;;15.00;9.57;;;23.80;96.60;;;;;;4994859;28;20033;-79
2021/06/17 06:11:40;;;;;;;14.98;9.13;;;23.90;96.70;;;;;;4997868;28;20358;-79
2021/06/17 06:14:05;;;;;;;12.65;8.68;;;23.90;96.40;;;;;;4995868;28;20035;-79
2021/06/17 06:16:34;;;;;;;11.10;9.00;;;23.90;96.50;;;;;;4996370;28;20464;-80
2021/06/17 06:19:00;;;;;;;17.05;10.68;;;23.90;96.40;;;;;;4996351;28;20050;-79
2021/06/17 06:21:26;;;;;;;18.00;10.85;;;24.00;96.30;;;;;;4996045;28;20066;-79
2021/06/17 06:23:51;;;;;;;17.85;9.68;;;24.10;96.20;;;;;;4996012;28;20019;-79
2021/06/17 06:26:17;;;;;;;13.07;9.10;;;24.20;96.40;;;;;;4994856;28;20038;-80
2021/06/17 06:28:43;;;;;;;18.92;10.27;;;24.30;96.00;;;;;;4993433;28;20034;-79
2021/06/17 06:31:10;;;;;;;11.65;9.15;;;24.40;95.80;;;;;;4994797;28;20030;-79
2021/06/17 06:33:36;;;;;;;14.50;9.32;;;24.50;95.70;;;;;;4994306;28;20137;-79
2021/06/17 06:36:01;;;;;;;13.98;8.70;;;24.60;95.60;;;;;;4994294;28;20345;-79
2021/06/17 06:38:27;;;;;;;11.18;8.55;;;24.60;95.50;;;;;;4996133;28;20139;-79
2021/06/17 06:40:52;;;;;;;21.38;10.07;;;24.70;95.50;;;;;;4994779;28;20030;-80
2021/06/17 06:43:18;;;;;;;14.43;8.02;;;24.70;95.60;;;;;;4994301;28;20053;-79
2021/06/17 06:45:44;;;;;;;16.85;8.35;;;24.70;95.30;;;;;;4995679;28;20361;-80
2021/06/17 06:48:10;;;;;;;17.98;9.07;;;24.80;95.30;;;;;;4995988;28;20052;-79
2021/06/17 06:50:37;;;;;;;15.13;8.55;;;24.80;95.10;;;;;;4996723;28;20392;-79
2021/06/17 06:53:04;;;;;;;13.95;8.35;;;24.90;95.40;;;;;;4978488;28;20129;-87
2021/06/17 06:55:29;;;;;;;16.88;8.30;;;24.90;95.20;;;;;;4991541;28;20031;-87
2021/06/17 06:57:55;;;;;;;14.95;7.68;;;25.00;94.90;;;;;;5002620;28;20026;-86
2021/06/17 07:00:21;;;;;;;10.57;7.80;;;25.10;94.70;;;;;;4998071;28;20492;-87
2021/06/17 07:02:46;;;;;;;11.52;7.88;;;25.10;94.60;;;;;;4996701;28;20366;-85
2021/06/17 07:05:13;;;;;;;14.07;8.55;;;25.20;94.60;;;;;;4994646;28;20035;-82
2021/06/17 07:07:40;;;;;;;17.27;9.13;;;25.30;94.30;;;;;;4995704;28;20042;-86
2021/06/17 07:10:07;;;;;;;11.55;8.07;;;25.40;94.20;;;;;;4994639;28;20214;-86
2021/06/17 07:12:33;;;;;;;15.65;7.70;;;25.60;94.10;;;;;;4992764;28;20511;-84
2021/06/17 07:14:59;;;;;;;17.63;9.18;;;25.60;94.10;;;;;;4993518;28;20034;-85
2021/06/17 07:17:26;;;;;;;18.83;11.23;;;25.70;94.10;;;;;;4995023;28;20412;-89
2021/06/17 07:19:56;;;;;;;10.93;8.07;;;25.80;93.60;;;;;;4992282;28;20477;-88
2021/06/17 07:22:25;;;;;;;12.65;7.90;;;25.90;93.10;;;;;;4982023;28;20469;-87
2021/06/17 07:24:53;;;;;;;9.43;7.40;;;26.00;92.90;;;;;;4980680;28;20058;-86
2021/06/17 07:27:19;;;;;;;15.27;8.35;;;26.10;92.60;;;;;;4994491;28;20097;-89
2021/06/17 07:29:45;;;;;;;13.93;7.30;;;26.20;92.80;;;;;;4997649;28;20014;-86
2021/06/17 07:32:11;;;;;;;17.13;7.93;;;26.30;93.00;;;;;;4994288;28;20097;-85
2021/06/17 07:34:37;;;;;;;11.35;7.70;;;26.50;92.80;;;;;;4993801;28;20508;-88
2021/06/17 07:37:03;;;;;;;14.15;8.93;;;26.60;92.70;;;;;;4984493;28;20083;-87
2021/06/17 07:39:29;;;;;;;8.50;6.95;;;26.80;92.20;;;;;;4978492;28;20038;-91
2021/06/17 07:41:55;;;;;;;11.82;6.45;;;27.10;91.50;;;;;;4994981;28;20356;-84
2021/06/17 07:44:20;;;;;;;12.15;6.88;;;27.70;91.40;;;;;;4992882;28;20046;-86
2021/06/17 07:46:47;;;;;;;16.15;6.82;;;28.60;90.30;;;;;;4993230;28;20096;-85
2021/06/17 07:49:13;;;;;;;10.48;6.28;;;29.20;87.50;;;;;;4994070;28;20102;-88
2021/06/17 07:51:39;;;;;;;9.85;6.55;;;29.60;84.70;;;;;;4993446;28;20081;-87
2021/06/17 07:54:04;;;;;;;10.93;6.32;;;30.00;85.00;;;;;;4993760;28;20019;-85
2021/06/17 07:56:31;;;;;;;12.23;6.10;;;30.30;82.60;;;;;;4993434;28;20023;-86
2021/06/17 07:58:58;;;;;;;10.90;6.70;;;30.50;80.80;;;;;;4993271;28;20030;-86
2021/06/17 08:01:25;;;;;;;12.60;5.65;;;30.80;81.10;;;;;;4993498;28;20069;-86
2021/06/17 08:03:51;;;;;;;11.38;6.40;;;31.20;78.70;;;;;;4992250;28;20453;-86
2021/06/17 08:06:18;;;;;;;9.85;6.25;;;31.70;78.60;;;;;;4992935;28;20036;-87
2021/06/17 08:08:44;;;;;;;8.32;5.80;;;32.20;76.50;;;;;;4993886;28;20072;-88
2021/06/17 08:11:10;;;;;;;9.45;6.25;;;32.60;73.40;;;;;;4991463;28;20038;-86
2021/06/17 08:13:36;;;;;;;8.88;5.88;;;33.10;72.30;;;;;;4991909;28;20038;-87
2021/06/17 08:16:02;;;;;;;10.07;5.88;;;33.60;71.70;;;;;;4990602;28;20456;-86
2021/06/17 08:18:28;;;;;;;7.53;5.88;;;33.90;70.10;;;;;;4991569;28;20073;-85
2021/06/17 08:20:54;;;;;;;13.35;6.10;;;34.20;68.90;;;;;;4992944;28;20053;-85
2021/06/17 08:23:21;;;;;;;6.67;5.50;;;34.50;66.00;;;;;;4991933;28;20461;-85
2021/06/17 08:25:48;;;;;;;12.67;6.73;;;35.00;63.10;;;;;;4976582;28;20058;-83
2021/06/17 08:28:14;;;;;;;11.75;5.88;;;35.60;62.00;;;;;;4982141;28;20085;-82
2021/06/17 08:30:39;;;;;;;9.50;5.72;;;35.90;60.10;;;;;;4991196;28;20058;-85
2021/06/17 08:33:05;;;;;;;8.18;5.35;;;36.40;59.30;;;;;;4991718;28;20030;-83
2021/06/17 08:35:31;;;;;;;6.53;5.60;;;37.00;57.00;;;;;;4993169;28;20108;-84
2021/06/17 08:37:58;;;;;;;12.82;5.88;;;37.50;56.20;;;;;;4991226;28;20116;-85
2021/06/17 08:40:30;;;;;;;12.63;5.85;;;37.30;54.10;;;;;;4990602;28;20046;-83
2021/06/17 08:42:56;;;;;;;9.90;5.90;;;37.80;53.40;;;;;;4983179;28;20477;-84
2021/06/17 08:45:22;;;;;;;9.65;5.50;;;38.00;53.30;;;;;;4974761;28;20065;-84
2021/06/17 08:47:48;;;;;;;8.45;6.45;;;38.50;51.50;;;;;;4991240;28;20038;-82
2021/06/17 08:50:15;;;;;;;9.70;5.32;;;38.70;50.90;;;;;;4972914;28;20092;-82
2021/06/17 08:52:43;;;;;;;9.07;5.88;;;38.60;51.50;;;;;;4984987;28;20038;-83
2021/06/17 08:55:21;;;;;;;10.02;5.00;;;38.50;50.50;;;;;;4981244;28;20413;-84
2021/06/17 08:57:49;;;;;;;9.48;5.07;;;39.20;48.40;;;;;;4972055;28;20409;-86
2021/06/17 09:00:15;;;;;;;6.53;5.10;;;39.10;48.10;;;;;;4974441;28;20469;-83
2021/06/17 09:02:41;;;;;;;10.07;5.47;;;39.00;47.80;;;;;;4973293;28;20125;-83
2021/06/17 09:05:18;;;;;;;7.70;5.22;;;39.20;48.30;;;;;;4989289;28;20125;-85
2021/06/17 09:07:44;;;;;;;6.93;5.07;;;38.90;47.60;;;;;;4990988;28;20042;-85
2021/06/17 09:10:11;;;;;;;10.10;4.75;;;38.90;47.10;;;;;;4990794;28;20125;-83
2021/06/17 09:12:48;;;;;;;12.57;5.90;;;38.70;47.60;;;;;;4990703;28;20129;-86
2021/06/17 09:15:26;;;;;;;6.80;4.90;;;38.00;47.10;;;;;;4990676;28;20037;-85
2021/06/17 09:18:27;;;;;;;7.82;4.82;;;37.50;48.20;;;;;;4991842;28;20026;-82
2021/06/17 09:21:00;;;;;;;6.13;4.65;;;37.40;48.30;;;;;;4990718;28;20034;-85
2021/06/17 09:23:30;;;;;;;9.73;4.95;;;37.00;48.00;;;;;;4991021;28;20035;-81
2021/06/17 09:25:58;;;;;;;7.85;4.63;;;36.90;48.90;;;;;;4990609;28;20124;-83
2021/06/17 09:28:42;;;;;;;7.53;4.90;;;36.60;48.00;;;;;;4978773;28;20122;-84
2021/06/17 09:31:16;;;;;;;7.57;4.22;;;36.30;48.40;;;;;;4979968;28;20476;-83
2021/06/17 09:33:44;;;;;;;11.55;4.65;;;35.80;48.20;;;;;;4990406;28;20383;-82
2021/06/17 09:36:10;;;;;;;6.82;4.80;;;35.50;49.00;;;;;;4989256;28;20286;-82
2021/06/17 09:38:48;;;;;;;6.25;4.05;;;35.30;48.20;;;;;;4987389;28;20047;-83
2021/06/17 09:41:35;;;;;;;9.55;4.20;;;35.20;48.70;;;;;;4971101;28;20035;-83
2021/06/17 09:44:01;;;;;;;9.35;3.80;;;35.00;49.50;;;;;;4988464;28;20445;-83
2021/06/17 09:46:27;;;;;;;6.80;3.92;;;34.90;48.80;;;;;;4997155;28;20034;-80
2021/06/17 09:48:53;;;;;;;11.35;3.63;;;34.90;48.50;;;;;;4999732;28;20069;-83
2021/06/17 09:51:29;;;;;;;5.88;3.88;;;34.70;48.20;;;;;;4999311;28;20038;-80
2021/06/17 09:54:09;;;;;;;5.50;3.95;;;34.60;48.50;;;;;;4991228;28;20041;-82
2021/06/17 09:56:36;;;;;;;4.95;4.22;;;34.50;47.80;;;;;;4991101;28;20043;-83
2021/06/17 09:59:04;;;;;;;6.03;3.70;;;34.30;47.60;;;;;;4974376;28;20031;-82
2021/06/17 10:01:31;;;;;;;6.88;4.20;;;34.40;47.90;;;;;;4998502;28;20037;-83
2021/06/17 10:04:03;;;;;;;9.20;4.00;;;34.30;49.80;;;;;;4990594;28;20026;-82
2021/06/17 10:06:29;;;;;;;10.63;5.13;;;34.30;50.50;;;;;;4990355;28;20369;-83
2021/06/17 10:08:55;;;;;;;5.22;4.13;;;34.40;50.20;;;;;;4991688;28;20230;-82
2021/06/17 10:11:22;;;;;;;7.05;3.80;;;34.40;48.80;;;;;;4971390;28;20174;-81
2021/06/17 10:13:48;;;;;;;7.72;4.43;;;34.40;49.00;;;;;;5000782;28;20053;-84
2021/06/17 10:16:17;;;;;;;8.60;4.20;;;34.50;49.60;;;;;;4990359;28;20078;-82
2021/06/17 10:18:46;;;;;;;9.82;3.90;;;34.40;49.60;;;;;;4983946;28;20365;-81
2021/06/17 10:21:17;;;;;;;9.65;6.07;;;34.20;49.60;;;;;;4987513;28;20037;-82
2021/06/17 10:23:50;;;;;;;12.68;4.25;;;34.20;49.60;;;;;;4991473;28;20019;-83
2021/06/17 10:26:20;;;;;;;5.68;3.75;;;34.40;50.10;;;;;;4989802;28;20042;-83
2021/06/17 10:28:51;;;;;;;8.93;3.92;;;34.30;49.60;;;;;;4979279;28;20031;-83
2021/06/17 10:31:35;;;;;;;6.57;3.88;;;34.30;48.70;;;;;;4984497;28;20035;-82
2021/06/17 10:34:23;;;;;;;6.32;3.53;;;34.10;49.20;;;;;;4992358;28;20042;-84
2021/06/17 10:37:19;;;;;;;4.05;3.65;;;34.20;48.70;;;;;;4991976;28;20062;-82
2021/06/17 10:40:09;;;;;;;9.27;5.63;;;34.20;49.00;;;;;;4993221;28;20026;-82
2021/06/17 10:42:35;;;;;;;6.35;3.40;;;34.20;47.60;;;;;;4992063;28;20034;-84
2021/06/17 10:45:06;;;;;;;8.55;4.20;;;34.20;45.90;;;;;;4992415;28;20033;-81
2021/06/17 10:50:21;;;;;;;6.63;3.22;;;34.10;47.10;;;;;;4988802;28;20057;-82
2021/06/17 10:52:53;;;;;;;7.90;4.10;;;34.10;46.80;;;;;;4992308;28;20100;-81
2021/06/17 10:55:22;;;;;;;8.25;3.90;;;34.10;47.40;;;;;;4992815;28;20038;-83
2021/06/17 10:57:50;;;;;;;6.38;4.30;;;34.10;48.20;;;;;;4991554;28;20045;-84
2021/06/17 11:00:30;;;;;;;6.35;4.03;;;34.10;47.90;;;;;;4993947;28;20030;-83
2021/06/17 11:03:18;;;;;;;12.27;8.40;;;34.10;48.50;;;;;;4996567;28;20038;-83
2021/06/17 11:05:46;;;;;;;4.22;3.60;;;34.10;46.40;;;;;;4992566;28;20100;-79
2021/06/17 11:08:15;;;;;;;9.50;7.10;;;34.00;46.40;;;;;;4992535;28;20092;-78
2021/06/17 11:10:46;;;;;;;5.85;4.22;;;34.00;46.10;;;;;;4978502;28;20360;-76
2021/06/17 11:13:29;;;;;;;6.10;3.80;;;34.00;46.30;;;;;;4982591;28;20141;-77
2021/06/17 11:16:00;;;;;;;10.18;4.88;;;34.00;46.50;;;;;;4992700;28;20041;-77
2021/06/17 11:19:01;;;;;;;5.03;3.20;;;34.00;47.00;;;;;;4988688;28;20042;-76
2021/06/17 11:21:33;;;;;;;7.70;3.47;;;33.90;45.80;;;;;;4976478;28;20030;-75
2021/06/17 11:24:04;;;;;;;6.55;3.30;;;33.90;45.90;;;;;;4992169;28;20029;-75
2021/06/17 11:26:49;;;;;;;11.60;3.80;;;33.90;46.00;;;;;;4993574;28;20029;-76
2021/06/17 11:29:20;;;;;;;6.38;3.53;;;33.80;45.20;;;;;;4991617;28;20122;-77
2021/06/17 11:31:50;;;;;;;9.13;3.90;;;33.90;45.60;;;;;;4991997;28;20081;-76
2021/06/17 11:34:41;;;;;;;4.50;3.00;;;33.90;46.00;;;;;;4981725;28;20042;-77
2021/06/17 11:37:14;;;;;;;5.40;2.90;;;34.00;44.80;;;;;;4972059;28;20089;-78
2021/06/17 11:39:40;;;;;;;3.60;2.95;;;34.00;45.10;;;;;;4987134;28;20041;-76
2021/06/17 11:42:12;;;;;;;8.27;2.92;;;33.90;43.80;;;;;;4973103;28;20030;-76
2021/06/17 11:44:38;;;;;;;4.10;2.70;;;33.90;43.20;;;;;;4993296;28;20072;-76
2021/06/17 11:47:08;;;;;;;5.18;2.53;;;33.80;41.80;;;;;;4991835;28;20078;-76
2021/06/17 11:49:39;;;;;;;4.78;2.40;;;33.80;41.30;;;;;;4991605;28;20038;-75
2021/06/17 11:52:16;;;;;;;11.10;2.70;;;33.70;42.00;;;;;;4990085;28;20042;-77
2021/06/17 11:54:47;;;;;;;4.28;2.97;;;33.80;42.70;;;;;;4991144;28;20038;-78
2021/06/17 11:57:15;;;;;;;2.65;2.45;;;33.70;40.80;;;;;;4991699;28;20030;-76
2021/06/17 11:59:42;;;;;;;;;;;33.80;41.10;;;;;;4993563;28;20035;-74
2021/06/17 12:02:25;;;;;;;3.90;2.50;;;33.70;40.70;;;;;;4991095;28;19952;-74
2021/06/17 12:05:08;;;;;;;4.53;2.90;;;33.70;42.00;;;;;;4990396;28;20046;-76
2021/06/17 12:07:38;;;;;;;4.43;2.45;;;33.70;41.50;;;;;;4991423;28;20138;-76
2021/06/17 12:10:09;;;;;;;4.15;2.40;;;33.70;42.40;;;;;;4991387;28;20042;-77
2021/06/17 12:12:35;;;;;;;4.60;2.42;;;33.60;41.20;;;;;;4991258;28;20422;-76
2021/06/17 12:15:01;;;;;;;4.75;2.55;;;33.60;41.40;;;;;;4991135;28;20022;-78
2021/06/17 12:17:29;;;;;;;3.17;2.40;;;33.60;41.30;;;;;;4992722;28;20030;-76
2021/06/17 12:19:58;;;;;;;;;;;33.60;41.50;;;;;;4991542;28;20133;-78
2021/06/17 12:22:25;;;;;;;3.35;2.60;;;33.60;41.50;;;;;;4990870;28;19920;-76
2021/06/17 12:24:51;;;;;;;5.00;2.33;;;33.60;40.70;;;;;;4991291;28;20293;-76
2021/06/17 12:27:18;;;;;;;3.35;2.50;;;33.60;39.80;;;;;;4990746;28;20018;-77
2021/06/17 12:29:45;;;;;;;5.72;2.50;;;33.60;40.40;;;;;;4991541;28;20030;-76
2021/06/17 12:32:11;;;;;;;3.03;2.50;;;33.60;40.30;;;;;;4990812;28;20552;-77
2021/06/17 12:34:40;;;;;;;4.20;2.88;;;33.50;39.80;;;;;;4990458;28;20034;-75
2021/06/17 12:37:09;;;;;;;9.55;2.45;;;33.50;40.10;;;;;;4990253;28;20464;-76
2021/06/17 12:39:35;;;;;;;5.03;2.38;;;33.50;40.60;;;;;;4990552;28;20042;-78
2021/06/17 12:42:11;;;;;;;7.13;2.80;;;33.50;40.70;;;;;;4990426;28;20105;-78
2021/06/17 12:44:40;;;;;;;4.05;2.50;;;33.50;40.70;;;;;;4992066;28;20076;-76
2021/06/17 12:47:20;;;;;;;2.03;1.85;;;33.40;40.20;;;;;;4990368;28;20121;-77
2021/06/17 12:52:36;;;;;;;5.30;3.00;;;33.30;41.00;;;;;;4990468;28;20104;-76
2021/06/17 12:55:03;;;;;;;5.90;3.05;;;33.30;40.20;;;;;;4990637;28;20362;-77
2021/06/17 12:57:29;;;;;;;4.88;2.90;;;33.30;39.70;;;;;;4990651;28;20030;-76